• Join FlightAware (Why Join?)
  • Login
  • US Flag 
04:31PM EST


 

Airport Tracker/Info


-or-


 

Live Flight TrackerFlight Track Log ✈ ASQ5738 ✈ 27-Apr-2013 ✈ KIAD - KCHS

Flight Track Log - Related Links

Times and Time Zones

All times are in EDT time to prevent confusion due to time zone crossing. See the ASQ5738 flight status page for this flight to view local times or setup timezone preferences in your user account.

Time Position Orientation Groundspeed Altitude Reporting Facility
EDT Latitude Longitude Course Direction KTS MPH feet Rate Location/Type
12:39PM 38.9500 -77.5000 123° Southeast 177 204 1,600  Level Potomac TRACON
12:40PM 38.9833 -77.5667 303° West 238 274 3,500 2,220 Climbing Potomac TRACON
12:41PM 39.0500 -77.5833 349° North 279 321 6,100 2,700 Climbing Potomac TRACON
12:42PM 38.5888 -77.6253 123° Southeast  Level Estimated
12:42PM 39.1167 -77.5167 38° Northeast 269 310 9,000  Level Potomac TRACON
12:43PM 38.4991 -77.6664 128° Southeast  Level Estimated
12:43PM 39.1667 -77.4667 38° Northeast 283 326 10,000  Level Potomac TRACON
12:44PM 38.4094 -77.7074 123° Southeast  Level Estimated
12:44PM 39.1667 -77.3667 90° East 342 394 10,000  Level Potomac TRACON
12:45PM 39.1333 -77.2333 108° East 383 441 11,800 2,040 Climbing Potomac TRACON
12:46PM 39.1000 -77.1167 110° East 383 441 14,200 2,340 Climbing Potomac TRACON
12:47PM 39.0000 -77.0333 147° Southeast 372 428 16,500 1,560 Climbing Potomac TRACON
12:49PM 38.7917 -76.8861 151° Southeast 405 466 19,400 1,260 Climbing Washington Center
12:50PM 38.6903 -76.8153 151° Southeast 410 472 20,800 1,380 Climbing Washington Center
12:51PM 38.5867 -76.7469 153° Southeast 410 472 22,200 1,200 Climbing Washington Center
12:52PM 38.4722 -76.7189 169° South 415 478 23,300 900 Climbing Washington Center
12:53PM 38.3433 -76.7008 174° South 416 479 24,000 300 Climbing Washington Center
12:54PM 38.2244 -76.6806 172° South 427 491 24,000  Level Washington Center
12:55PM 38.0994 -76.6656 175° South 439 505 24,000  Level Washington Center
12:56PM 37.9808 -76.6481 173° South 444 511 24,000  Level Washington Center
12:57PM 37.8619 -76.6569 183° South 438 504 24,000  Level Washington Center
12:58PM 37.7428 -76.6736 186° South 433 498 24,000  Level Washington Center
12:59PM 37.6258 -76.6878 185° South 433 498 24,000  Level Washington Center
01:00PM 37.5111 -76.7019 186° South 428 493 24,000  Level Washington Center
01:01PM 37.3983 -76.7292 191° South 421 484 24,000  Level Washington Center
01:02PM 37.2850 -76.7769 199° South 421 484 24,000  Level Washington Center
01:03PM 37.1783 -76.8222 199° South 416 479 24,000  Level Washington Center
01:04PM 37.0714 -76.8700 200° South 416 479 24,000  Level Washington Center
01:05PM 36.9644 -76.9125 198° South 416 479 24,000  Level Washington Center
01:06PM 36.8578 -76.9547 198° South 410 472 24,000  Level Washington Center
01:07PM 36.7528 -76.9994 199° South 410 472 24,000  Level Washington Center
01:08PM 36.6481 -77.0442 199° South 410 472 24,000  Level Washington Center
01:09PM 36.5411 -77.0889 199° South 405 466 24,000  Level Washington Center
01:10PM 36.4342 -77.1281 196° South 405 466 24,000  Level Washington Center
01:11PM 36.3292 -77.1750 200° South 405 466 24,000  Level Washington Center
01:12PM 36.2222 -77.2167 197° South 405 466 24,000  Level Washington Center
01:13PM 36.1319 -77.2583 200° South 405 466 24,000  Level Washington Center
01:14PM 36.0228 -77.2997 197° South 405 466 24,000  Level Washington Center
01:15PM 35.9158 -77.3411 197° South 405 466 24,000  Level Washington Center
01:16PM 35.8108 -77.3825 198° South 405 466 24,000  Level Washington Center
01:17PM 35.7017 -77.4258 198° South 410 472 24,000  Level Washington Center
01:18PM 35.5925 -77.4694 198° South 410 472 24,000  Level Washington Center
01:19PM 35.4833 -77.5153 199° South 410 472 24,000  Level Washington Center
01:20PM 35.3742 -77.5586 198° South 410 472 24,000  Level Washington Center
01:21PM 35.2872 -77.6456 219° Southwest 405 466 24,000  Level Washington Center
01:22PM 35.2022 -77.7297 219° Southwest 405 466 24,000  Level Washington Center
01:23PM 35.1192 -77.8189 221° Southwest 405 466 24,000  Level Washington Center
01:24PM 35.0342 -77.9053 220° Southwest 405 466 24,000  Level Washington Center
01:25PM 34.9511 -77.9942 221° Southwest 405 466 24,000  Level Washington Center
01:26PM 34.8658 -78.0778 219° Southwest 405 466 24,000  Level Washington Center
01:27PM 34.7761 -78.1786 223° Southwest 405 466 24,000  Level Washington Center
01:30PM 34.5694 -78.3869 220° Southwest 407 468 24,000  Level Jacksonville Center
01:31PM 34.4908 -78.4592 217° Southwest 407 468 24,000  Level Jacksonville Center
01:32PM 34.3983 -78.5619 223° Southwest 407 468 24,000  Level Jacksonville Center
01:33PM 34.3136 -78.6467 220° Southwest 407 468 24,000  Level Jacksonville Center
01:34PM 34.2311 -78.7361 222° Southwest 407 468 24,000  Level Jacksonville Center
01:35PM 34.1586 -78.8172 223° Southwest 402 463 24,000  Level Jacksonville Center
01:36PM 34.0781 -78.9086 223° Southwest 402 463 24,000 -420 Level Jacksonville Center
01:37PM 33.9975 -79.0025 224° Southwest 407 468 23,200 -540 Descending Jacksonville Center
01:38PM 33.9108 -79.0967 222° Southwest 413 475 23,000 -120 Descending Jacksonville Center
01:39PM 33.8278 -79.1875 222° Southwest 413 475 23,000  Level Jacksonville Center
01:40PM 33.7406 -79.2711 219° Southwest 413 475 23,000 -240 Level Jacksonville Center
01:41PM 33.6386 -79.3503 213° Southwest 406 467 22,600 -1,200 Descending Jacksonville Center
01:42PM 33.5425 -79.4214 212° Southwest 406 467 20,700 -2,280 Descending Jacksonville Center
01:43PM 33.4525 -79.4894 212° Southwest 411 473 18,100 1,620 Descending Jacksonville Center
01:44PM 33.3667 -79.5550 213° Southwest 397 457 24,000 -4,080 Climbing Jacksonville Center
01:45PM 33.2867 -79.6128 211° Southwest 368 423 10,000 -8,520 Descending Jacksonville Center
01:46PM 33.2214 -79.6672 215° Southwest 323 372 7,000 -2,520 Descending Jacksonville Center
01:47PM 33.1622 -79.7189 216° Southwest 295 339 5,000 -1,020 Descending Jacksonville Center
01:48PM 33.1008 -79.7708 215° Southwest 283 326 5,000 -540 Level Jacksonville Center
01:49PM 33.0394 -79.8250 216° Southwest 278 320 4,000 -1,500 Descending Jacksonville Center
01:50PM 32.9822 -79.8789 218° Southwest 278 320 2,100 -1,020 Descending Jacksonville Center
01:51PM 32.9250 -79.9278 216° Southwest 273 314 2,000 -60 Descending Jacksonville Center
01:52PM 32.8781 -79.9664 215° Southwest 262 302 2,000  Level Jacksonville Center